Florida AWOS List, Phone Numbers

USA |  
| Search AWOS

Rocky Mountain States: Montana | Wyoming | Colorado | New Mexico

Complete weather reports: Florida

Legend: KFNL = METAR available Follow your local AWOS on AV Mobile = METAR available on AV Mobile
Station Florida Location Frequency Phone
KAQQICAO ID KAQQ Apalachicola, Apalachicola
KAAFFAA ID AAF, ASOS, KAAF 311453Z AUTO 00000KT 10SM BKN070 28/16 A3002 Follow KAAF on AV Mobile APALACHICOLA MUNICIPAL AIRPORT 119.925 850-653-8271
KNAEICAO ID KNAE Astor, Bombing Range Detachment Astor
KAVOFAA ID AVO, AWOS-3 AVON PARK 118.725 863-453-4223
KAGRFAA ID AGR Avon Park Gunnery Range
KBOWFAA ID BOW, AWOS-3, KBOW 311450Z 26004KT 10SM SCT150 29/19 A3002 Follow KBOW on AV Mobile Bartow Municipal 123.775 863-533-9004
F95FAA ID F95, AWOS-AV, KANK 311530Z AUTO 01004KT 10SM OVC027 15/12 A3047 RMK AO1 T01500118 Follow  on AV Mobile BLOUNTSTOWN 119.350 850-674-1347
KBCTFAA ID BCT, AWOS-3, KBCT 311445Z 22008KT 10SM FEW030CB 31/24 A3000 Follow KBCT on AV Mobile Boca Raton, Boca Raton Airport 121.125 561-391-2696
K1J0FAA ID 1J0, K1J0 311506Z AUTO 00000KT 10SM FEW002 28/16 A3004 RMK AO2 T02830161 $ Follow K1J0 on AV Mobile TRI COUNTY AIRPORT
KBKVFAA ID BKV, ASOS, KBKV 311453Z 00000KT 10SM CLR 29/19 A3002 RMK AO2 SLP163 T02890189 52007 Follow KBKV on AV Mobile BROOKSVILLE HERNANDO CO AIRPORT 134.725 352-799-5881
K1J4ICAO ID K1J4 Cape San Blas Coast Guard Station
KNZCICAO ID KNZC Cecil, Naval Air Station
2ISFAA ID 2IS, AWOS-3, KANK 311530Z AUTO 01004KT 10SM OVC027 15/12 A3047 RMK AO1 T01500118 Follow  on AV Mobile CLEWISTON 124.175 863-983-7020
KX53ICAO ID KX53 Clewiston
KCOFFAA ID COF, KCOF 311458Z AUTO 13006KT 10SM CLR 30/25 A3000 RMK AO2 LTG DSNT N SLP163 T02990248 53003 Follow KCOF on AV Mobile Cocoa / Patrick Air Force Base
KXMRFAA ID XMR, KXMR 311458Z AUTO 19008KT 10SM CLR 30/25 A2999 RMK AO2 LTG DSNT N SLP159 T02980246 51005 Follow KXMR on AV Mobile Cocoa Beach, Cape Canaveral Air Force Station Skid Strip
KCEWFAA ID CEW, ASOS, KCEW 311453Z AUTO 00000KT 10SM CLR 27/15 A3006 Follow KCEW on AV Mobile CRESTVIEW SIKES AIRPORT 119.275 850-682-1237
KEGIFAA ID EGI, KEGI 311455Z 34003KT 10SM SCT250 27/17 A3005 RMK AO2A SLP177 T02650172 52010 $ Follow KEGI on AV Mobile Duke Field / Eglin Auxiliary
KCTYFAA ID CTY, KCTY 311453Z AUTO 05003KT 29/19 A3000 Follow KCTY on AV Mobile CROSS CITY AIRPORT
KCGCFAA ID CGC, AWOS-3, KCGC 311515Z AUTO 02003KT 10SM CLR 31/16 A3000 RMK AO2 LTG DSNT E PWINO Follow KCGC on AV Mobile CRYSTAL RIVER 118.325 352-563-6600
KDABFAA ID DAB, ASOS, KDAB 311453Z 09008KT 10SM FEW020 SCT028TCU SCT055 SCT150 31/24 A3000 Follow KDAB on AV Mobile DAYTONA BEACH INTERNATIONAL 386-253-7469
54JFAA ID 54J, AWOS-3P, KANK 311530Z AUTO 01004KT 10SM OVC027 15/12 A3047 RMK AO1 T01500118 Follow  on AV Mobile DEFUNIAK SPRINGS 118.725 850-892-0147
KDEDFAA ID DED, AWOS-3, KDED 311515Z AUTO 09005KT 10SM SCT023 30/24 A3001 RMK AO1 Follow KDED on AV Mobile DELAND 119.575 386-740-5811
KDTSFAA ID DTS, ASOS, KDTS 311453Z AUTO 00000KT 10SM CLR 28/17 A3004 RMK AO2 SLP171 T02830167 51010 TSNO Follow KDTS on AV Mobile DESTIN-FT WALTON BEACH AIRPORT 133.925 850-654-7128
KX91ICAO ID KX91 Egmont Key Coast Guard Station
KFHBFAA ID FHB, AWOS-3, KFHB 311515Z AUTO 18004KT 10SM CLR 31/18 A2999 RMK AO1 LTG DSNT SE Follow KFHB on AV Mobile FERNANDINA BEACH 118.075 904-277-7323
KFXEFAA ID FXE, ASOS, KFXE 311453Z 16006KT 10SM FEW030 SCT150 31/24 A3000 Follow KFXE on AV Mobile FORT LAUDERDALE EXECUTIVE 954-772-2537
KFLLFAA ID FLL, ASOS, KFLL 311453Z 15008KT 10SM SCT030 SCT180 BKN250 31/23 A2999 Follow KFLL on AV Mobile FORT LAUDERDALE/HOLLYWOOD 954-359-7857
KFMYFAA ID FMY, ASOS, KFMY 311453Z 00000KT 10SM CLR 31/22 A2999 RMK AO2 SLP158 T03060217 51010 Follow KFMY on AV Mobile FORT MYERS PAGE FIELD 239-936-2318
KRSWFAA ID RSW, ASOS, KRSW 311521Z AUTO 00000KT 10SM SCT026 BKN060 29/23 A3000 Follow KRSW on AV Mobile FORT MYERS SW FL INTERNATIONAL AIRPORT 239-561-0966
KX82ICAO ID KX82 Fort Pierce Coast Guard Station
KFPRFAA ID FPR, ASOS, KFPR 311453Z 20006KT 10SM SCT021 31/24 A3000 Follow KFPR on AV Mobile FORT PIERCE ST LUCIE 772-489-4281
KX86ICAO ID KX86 Fowey Rocks Coast Guard Station
KX89ICAO ID KX89 Ft. Myers Beach Coast Guard Station
KGNVFAA ID GNV, ASOS, KGNV 311453Z VRB06KT 10SM BKN050 29/20 A3000 Follow KGNV on AV Mobile GAINESVILLE REGIONAL AIRPORT 352-335-8672
KHWOFAA ID HWO, ASOS, KHWO 311453Z 20009KT 10SM FEW034 32/24 A3001 RMK AO2 SLP161 T03170244 50004 Follow KHWO on AV Mobile HOLLYWOOD NORTH PERRY AIRPORT 954-983-5904
X51FAA ID X51, AWOS-3, KANK 311530Z AUTO 01004KT 10SM OVC027 15/12 A3047 RMK AO1 T01500118 Follow  on AV Mobile HOMESTEAD 118.375 (305) 247-2791
KHSTFAA ID HST, KHST 311458Z AUTO 18006KT 10SM CLR 31/23 A3001 RMK AO2 SLP165 T03080225 51008 Follow KHST on AV Mobile Homestead Air Force Base
KIMMFAA ID IMM, AWOS-3, KIMM 311515Z AUTO 18005KT 8SM SCT031 34/25 A3001 RMK A01 P000 Follow KIMM on AV Mobile IMMOKALEE 118.525 239-657-2038
KINFFAA ID INF, AWOS-3, KINF 311515Z AUTO 00000KT 7SM OVC070 28/17 A3001 RMK AO2 LTG DSNT E Follow KINF on AV Mobile INVERNESS 119.975 352-341-0264
KX84ICAO ID KX84 Islamorada Coast Guard Station
KHEGFAA ID HEG, AWOS-3 JACKSONVILLE 119.275 904-695-0334
KCRGFAA ID CRG, ASOS, KCRG 311453Z 13004KT 10SM FEW065 31/18 A3000 RMK AO2 SLP158 T03110178 51005 Follow KCRG on AV Mobile JACKSONVILLE CRAIG MUN 904-646-4670
KJAXFAA ID JAX, ASOS, KJAX 311456Z VRB04KT 10SM FEW030 FEW070 BKN250 31/18 A3000 Follow KJAX on AV Mobile JACKSONVILLE INTERNATIONAL 904-741-4304
KNIPFAA ID NIP, KNIP 311453Z 13004KT 10SM BKN065 32/18 A3001 RMK AO2 SLP156 T03220183 51004 Follow KNIP on AV Mobile JACKSONVILLE NAVAL AIR STN
KVQQFAA ID VQQ, AWOS-3, KVQQ 311450Z 00000KT 10SM SCT070 30/19 A3000 Follow KVQQ on AV Mobile Jacksonville, Cecil Field Airport 125.275 904-778-6934
KNENFAA ID NEN NOLF WHITEHOUSE FIELD, FL
KX80ICAO ID KX80 Jupiter Inlet Coast Guard Station
KEYWFAA ID EYW, ASOS, KEYW 311453Z 24007KT 10SM FEW028 30/24 A3001 Follow KEYW on AV Mobile KEY WEST INTERNATIONAL AIRPORT 119.65 305-292-4046
KNQXFAA ID NQX, KNQX 311453Z 19006KT 10SM FEW025CB SCT080 BKN250 31/24 A3000 RMK AO2 SLP158 CB VC NW MOV NE T1 SET T03110239 51009 $ Follow KNQX on AV Mobile KEY WEST NAVAL AIR STATION
K42JFAA ID 42J, AWOS-3, K42J 311515Z AUTO 11003KT 10SM FEW050 FEW060 30/19 A3001 RMK AO1 Follow K42J on AV Mobile KEYSTONE HEIGHTS 124.275 352-473-8273
KLCQFAA ID LCQ, AWOS-3, KLCQ 311515Z AUTO 10SM BKN070 30/18 A3001 RMK AO2 LTG DSNT E Follow KLCQ on AV Mobile LAKE CITY 120.675 386-754-9366
X07FAA ID X07, AWOS-3, KANK 311530Z AUTO 01004KT 10SM OVC027 15/12 A3047 RMK AO1 T01500118 Follow  on AV Mobile LAKE WALES 124.225 863-678-1334
KX81ICAO ID KX81 Lake Worth Inlet
KLALFAA ID LAL, AWOS-3PT, KLAL 311350Z 00000KT 10SM SKC 27/20 A3000 Follow KLAL on AV Mobile Lakeland Regional 118.025 863-834-2030
KLEEFAA ID LEE, ASOS, KLEE 311453Z 00000KT 10SM FEW055 30/23 A3001 RMK AO2 SLP160 T03000228 51007 Follow KLEE on AV Mobile LEESBURG REGIONAL AIRPORT 134.325 352-787-1565
24JFAA ID 24J, AWOS-3, KANK 311530Z AUTO 01004KT 10SM OVC027 15/12 A3047 RMK AO1 T01500118 Follow  on AV Mobile LIVE OAK 118.225 386-362-1731
KX88ICAO ID KX88 Marathon Coast Guard Station
KMTHFAA ID MTH, ASOS, KMTH 311453Z AUTO 21005KT 10SM FEW032 33/24 A3000 RMK AO2 SLP159 T03280239 51009 $ Follow KMTH on AV Mobile MARATHON AIRPORT 135.525 305-743-8373
KMKYFAA ID MKY, AWOS-3, KMKY 311515Z AUTO 18006KT 10SM CLR 32/24 A3000 RMK AO1 Follow KMKY on AV Mobile MARCO ISLAND 120.075 239-394-8187
KMAIFAA ID MAI, ASOS, KMAI 311453Z AUTO 00000KT 10SM CLR 28/18 A3003 RMK AO2 SLP165 T02780183 $ Follow KMAI on AV Mobile MARIANNA MUNICIPAL AIRPORT 133.525 850-482-6082
KHRTFAA ID HRT, KHRT 311458Z AUTO 02003KT 10SM CLR 28/13 A3003 RMK AO2 SLP171 T02780129 51008 $ Follow KHRT on AV Mobile Hurlburt Field
KNRBFAA ID NRB, KNRB 311452Z 16004KT 10SM FEW070 BKN250 32/17 A3000 RMK AO2 SLP158 T03170172 51005 $ Follow KNRB on AV Mobile MAYPORT NAVAL AIR FACILITY
KMLBFAA ID MLB, ASOS, KMLB 311453Z 18007KT 10SM SCT027 31/24 A3000 Follow KMLB on AV Mobile MELBOURNE INTERNATIONAL 321-723-7403
KCOIFAA ID COI, AWOS-3 Merritt Island, Merritt Island Airport 119.025 321-986-8864
KTNTFAA ID TNT, AWOS-3 MIAMI 119.075 (239) 695-9198
KX87ICAO ID KX87 Miami Beach Coast Guard Station
KAMXICAO ID KAMX Miami Nexrad
KTMBFAA ID TMB, ASOS, KTMB 311453Z 18005KT 10SM FEW070 32/23 A3000 Follow KTMB on AV Mobile KENDALL-TAMIAMI EXEC AIRPORT 305-235-1332
KMIAFAA ID MIA, ASOS, KMIA 311453Z 14006KT 10SM SCT030TCU SCT150 BKN300 31/24 A3000 Follow KMIA on AV Mobile MIAMI INTERNATIONAL AIRPORT 305-870-0235
KOPFFAA ID OPF, KOPF 311453Z 21007KT 10SM FEW035 31/23 A3000 Follow KOPF on AV Mobile MIAMI OPA LOCKA AIRPORT
KNFJFAA ID NFJ CHOCTAW, WHITING FIELD, NOLF
KNSEFAA ID NSE, KNSE 311456Z 00000KT 10SM FEW120 BKN250 27/16 A3005 RMK AO2 SLP160 T02670161 51009 $ Follow KNSE on AV Mobile MILTON WHITING FIELD (NORTH)
KNDZFAA ID NDZ, KNDZ 311456Z VRB03KT 10SM FEW120 BKN250 28/16 A3005 RMK AO2 SLP160 T02780161 51009 $ Follow KNDZ on AV Mobile MILTON WHITING FIELD (SOUTH)
KAPFFAA ID APF, ASOS, KAPF 311453Z 29003KT 10SM SCT029 30/27 A2999 Follow KAPF on AV Mobile NAPLES MUNICIPAL AIRPORT 239-643-9886
KRRFICAO ID KRRF New Port Richey, Tampa Bay Executive Airport
KEVBFAA ID EVB, AWOS-3, KEVB 311447Z 07009KT 10SM SCT010 BKN030 30/25 A3000 Follow KEVB on AV Mobile New Smyrna Beach, New Smyrna Beach Municipal Airport 124.625 386-409-4705
KOCFFAA ID OCF, AWOS-3, KOCF 311450Z 00000KT 10SM BKN050 28/18 A3001 Follow KOCF on AV Mobile Ocala, Ocala International Airport-Jim Taylor Field 128.125 352-237-8525
KOBEFAA ID OBE, AWOS-3, KOBE 311515Z AUTO SCT024 SCT031 29/24 A3001 RMK AO2 Follow KOBE on AV Mobile Okeechobee County Airport 118.675 863-467-1148
KORLFAA ID ORL, ASOS, KORL 311453Z 19006KT 10SM FEW024 31/24 A3000 RMK AO2 SLP159 T03060244 53005 Follow KORL on AV Mobile ORLANDO EXECUTIVE AIRPORT 407-658-6753
KMCOFAA ID MCO, ASOS, KMCO 311453Z 17009KT 10SM FEW027 SCT250 30/23 A3000 Follow KMCO on AV Mobile ORLANDO INTERNATIONAL AIRPORT 407-855-5235
KSFBFAA ID SFB, ASOS, KSFB 311453Z 11006KT 10SM FEW021 30/24 A2999 Follow KSFB on AV Mobile ORLANDO SANFORD AIRPORT 407-321-9384
KISMFAA ID ISM, AWOS-3, KISM 311450Z 16006KT 10SM SKC 30/24 A3000 Follow KISM on AV Mobile Orlando, Kissimmee Municipal Airport 128.775 407-847-0533
KOMNFAA ID OMN, AWOS-3, KOMN 311450Z 08008KT 10SM SCT060 30/24 A3000 Follow KOMN on AV Mobile Ormond Beach, Ormond Beach Municipal Airport 118.475 386-615-7084
28JFAA ID 28J, AWOS-3, KANK 311530Z AUTO 01004KT 10SM OVC027 15/12 A3047 RMK AO1 T01500118 Follow  on AV Mobile PALATKA 119.92 386-312-2212
KXFLFAA ID XFL, AWOS-3, KXFL 311450Z 09006KT 7SM CLR 30/23 A3000 Follow KXFL on AV Mobile PALM COAST 128.325 386-437-7334
KECPFAA ID ECP, ASOS, KECP 311453Z 32003KT 10SM CLR 29/17 A3002 Follow KECP on AV Mobile PANAMA CITY 119.975 850-235-7857
KPFNICAO ID KPFN, KPFN 030253Z VRB03KT 10SM FEW023 25/23 A2989 Follow KPFN on AV Mobile PANAMA CITY-BAY CTY INTERNATIONAL
KPAMFAA ID PAM, KPAM 311458Z 07005KT 10SM FEW200 28/17 A3003 RMK AO2A SLP172 T02790171 50008 $ Follow KPAM on AV Mobile Tyndall Air Force Base
KPNSFAA ID PNS, ASOS, KPNS 311453Z 00000KT 10SM CLR 26/16 A3004 Follow KPNS on AV Mobile PENSACOLA REGIONAL AIRPORT 850-436-4799
KNPAFAA ID NPA, KNPA 311456Z 01004KT 10SM FEW120 BKN250 28/17 A3004 RMK AO2 SLP173 T02830167 51010 Follow KNPA on AV Mobile Pensacola, Naval Air Station
K40JFAA ID 40J, AWOS-3PT, K40J 311515Z AUTO 32003KT 10SM SCT065 28/18 A3002 RMK AO2 LTG DSNT E Follow K40J on AV Mobile PERRY-FOLEY AIRPORT 118.375 850-838-3526
FA54FAA ID FA54, Belfort CORAL CREEK
KPCMFAA ID PCM, AWOS-3, KPCM 311515Z AUTO 00000KT 10SM SCT060 31/19 A3003 RMK AO2 Follow KPCM on AV Mobile Plant City, Plant City Municipal Airport 120.025 813-764-8259
KPMPFAA ID PMP, ASOS, KPMP 311453Z 10SM FEW029 SCT039 A3000 RMK AO2 SLP161 51007 $ Follow KPMP on AV Mobile POMPANO BEACH AIRPARK 954-783-3720
K1J3ICAO ID K1J3 Ponce De Leon Inlet
KPGDFAA ID PGD, ASOS, KPGD 311453Z 36006KT 10SM CLR 31/19 A3002 RMK AO2 SLP167 T03110194 51011 $ Follow KPGD on AV Mobile PUNTA GORDA CHARLOTTE COUNTY 135.675 941-639-0076
K1J5ICAO ID K1J5 Santa Rosa Coast Guard Station
KSRQFAA ID SRQ, ASOS, KSRQ 311453Z 01006KT 10SM FEW037 31/20 A2999 Follow KSRQ on AV Mobile SARASOTA/BRADENTON INTERNATIONAL . 124.375 941-359-0117
KSEFFAA ID SEF, AWOS-3 SEBRING 119.475 863-655-6424
KSGJFAA ID SGJ, AWOS-3, KSGJ 311458Z 07005KT 10SM FEW060 33/21 A3001 RMK AO2 SLP161 T03330206 51004 $ Follow KSGJ on AV Mobile St. Augustine, St. Augustine Airport 904-824-7084
KPIEFAA ID PIE, ASOS, KPIE 311453Z 05004KT 10SM SCT050 30/20 A3001 Follow KPIE on AV Mobile ST PETERSBURG/CLEARWATER 727-531-3456
KSPGFAA ID SPG, ASOS, KSPG 311453Z 10006KT 10SM BKN048 30/19 A2999 RMK AO2 SLP156 T03000194 51008 Follow KSPG on AV Mobile ST PETERSBURG WHITTED AIRPORT 118.875 727-821-4334
KSUAFAA ID SUA, AWOS-3, KSUA 311447Z 20010KT 7SM BKN018 BKN090 30/24 A3001 Follow KSUA on AV Mobile Stuart, Witham Field Airport 772-692-7399
KTLHFAA ID TLH, ASOS, KTLH 311453Z 00000KT 10SM BKN250 30/18 A3002 Follow KTLH on AV Mobile TALLAHASSEE REGIONAL AIRPORT 850-576-3665
KTBWICAO ID KTBW Tampa Bay Area
KMCFFAA ID MCF, KMCF 311458Z AUTO VRB03KT 10SM CLR 32/22 A3001 RMK AO2 SLP165 T03200217 51005 Follow KMCF on AV Mobile Macdill Air Force Base, Fl.
KTPAFAA ID TPA, ASOS, KTPA 311453Z 00000KT 10SM SCT050 SCT120 SCT250 30/19 A3001 Follow KTPA on AV Mobile TAMPA INTERNATIONAL AIRPORT 813-873-7228
KTPFFAA ID TPF, AWOS-3, KTPF 131715Z AUTO 23004KT 10SM CLR 32/23 A3012 RMK AO2 Follow KTPF on AV Mobile Tampa, Peter O Knight Airport 118.925 813-251-6824
KVDFFAA ID VDF, AWOS-3, KVDF 311515Z AUTO 32003KT 10SM CLR 31/20 A3001 RMK AO2 Follow KVDF on AV Mobile Tampa, Vandenberg Airport 121.125 813-630-0924
KVLGICAO ID KVLG The Villages
KVVGICAO ID KVVG, KVVG 182350Z AUTO RMK AO2 PWINO Follow KVVG on AV Mobile The Villages
KX68ICAO ID KX68 Titusville, NASA Shuttle Landing Facility
KTIXFAA ID TIX, KTIX 311447Z 10007KT 7SM SCT025 29/24 A3000 Follow KTIX on AV Mobile Titusville
KX21FAA ID X21, AWOS-3 Titusville, Arthur Dunn Air Park 119.725 321-385-0383
KTTSFAA ID TTS, KTTS 311523Z AUTO 20004KT 10SM BKN027 BKN034 30/27 A2999 RMK AO2 LTG DSNT N-NE CIG 027V035 BKN027 V SCT Follow KTTS on AV Mobile Titusville, NASA Shuttle Landing Facility
KVPSFAA ID VPS, KVPS 311455Z 02002KT 10SM FEW020 28/15 A3004 RMK AO2A SLP178 T02770151 52014 $ Follow KVPS on AV Mobile Valparaiso / Eglin Air Force Base
KVNCFAA ID VNC, AWOS-3, KVNC 311515Z AUTO 00000KT 10SM CLR 30/20 A3002 RMK AO2 Follow KVNC on AV Mobile VENICE 119.275
KX90ICAO ID KX90 Venice Long Range Navigation
KVRBFAA ID VRB, ASOS, KVRB 311453Z 21007KT 10SM SCT014 30/24 A3000 Follow KVRB on AV Mobile VERO BEACH MUNICIPAL AIRPORT 772-978-9535
F45FAA ID F45, AWOS-3, KANK 311530Z AUTO 01004KT 10SM OVC027 15/12 A3047 RMK AO1 T01500118 Follow  on AV Mobile WEST PALM BEACH 119.975 561-630-6932
KLNAFAA ID LNA, AWOS-3 WEST PALM BEACH 119.925 561-964-0308
KPBIFAA ID PBI, ASOS, KPBI 311453Z 21009KT 10SM FEW035 SCT130 BKN250 31/23 A2999 Follow KPBI on AV Mobile PALM BEACH INTERNATIONAL 123.75 561-683-2548
FD38FAA ID FD38, Belfort WELLINGTON AERO CLUB
X60FAA ID X60, AWOS-3, KANK 311530Z AUTO 01004KT 10SM OVC027 15/12 A3047 RMK AO1 T01500118 Follow  on AV Mobile WILLISTON 118.425 352-528-9949
KGIFFAA ID GIF, ASOS, KGIF 311453Z AUTO 00000KT 10SM CLR 29/21 A3002 RMK AO2 SLP163 T02940206 53007 TSNO Follow KGIF on AV Mobile WINTER HAVENS GILBERT AIRPORT 133.675 863-956-2097
KZPHFAA ID ZPH, ASOS, KZPH 311515Z AUTO 23003KT 10SM SCT065 29/19 A3002 RMK AO2 LTG DSNT NE Follow KZPH on AV Mobile ZEPHYRHILLS 118.975 813-780-0031

Click on the AV Mobile icon AV Mobile icon by any station to follow that AWOS feed on AirportView.net Mobile.

Garmin aera 796 $1999 at Avionics Specialists LLC
Bose A20 Aviation Headsets $995 at Avionics Specialists LLC